Portada
METAR-TAF:

METAR-TAF

Aeroports :

Pakse, Laos

latitud: 15-08-02N, longitud: 105-46-55E, altitud: 107 m

Observació

L'informe es va fer fa 30 minuts, a les 03:00 UTC
Vent 4 kt del Sud
Temperatura 30°C
Humitat 70%
Pressió 1011 hPa
Visibilitat 10 km o més
Núvols disperses a una alçada de 2300 ft
Núvols disperses a una alçada de 10000 ft

METAR: VLPS 240300Z 18004KT 9999 SCT023 SCT100 30/24 Q1011 NOSIG

Hora: 10:30 (03:30 UTC)

Pronòstic

L'informe es va fer fa 4 hores i 30 minuts, a les 23:00 UTC
Pronòstic vàlid del 24 a les 00 UTC al 24 a les 24 UTC
Vent 6 kt del Sud
Visibilitat 10 km o més
Escasses núvols a una alçada de 2000 ft
Escasses núvols a una alçada de 2300 ft, Cumulus congestus.
Núvols disperses a una alçada de 20000 ft

TAF: VLPS 232300Z 2400/2424 18006KT 9999 FEW020 FEW023TCU SCT200

Observacions i pronòstics meteorològics de més de 4000 aeroports (METAR i TAF).

Les estacions disponibles són els punts grocs i vermells al mapa.

Posi el ratolí al punt desitjat per veure el nom de l'estació.

Feu clic per veure les observacions i els pronòstics meteorològics.

Per canviar el mapa: feu clic els botons verds amb una creu de color negre per apropar; al botó verd amb un guió per allunyar la imatge; o en les fletxes verdes per a mapes adjacents.


METAR-TAF: